createdAt,value
2023-08-24T00:00:09.055Z,30.28
2023-08-24T00:02:43.082Z,35.37
2023-08-24T00:05:16.384Z,32.82
2023-08-24T00:07:50.524Z,29.07
2023-08-24T00:10:23.853Z,28.34
2023-08-24T00:12:57.001Z,28.27
2023-08-24T00:15:31.932Z,28.82
2023-08-24T00:18:06.131Z,27.29
2023-08-24T00:20:39.393Z,27.54
2023-08-24T00:23:12.724Z,27.15
2023-08-24T00:25:45.965Z,26.49
2023-08-24T00:28:19.125Z,24.75
2023-08-24T00:30:53.667Z,26.15
2023-08-24T00:33:26.904Z,28.58
2023-08-24T00:36:02.763Z,27.96
2023-08-24T00:38:36.060Z,27.82
2023-08-24T00:41:09.290Z,30.21
2023-08-24T00:43:42.501Z,30.26
2023-08-24T00:46:17.091Z,28.78
2023-08-24T00:48:50.733Z,29.44
2023-08-24T00:51:23.968Z,29.94
2023-08-24T00:53:59.566Z,29.54
2023-08-24T00:56:33.273Z,27.39
2023-08-24T00:59:06.967Z,27.98
2023-08-24T01:01:45.365Z,29.16
2023-08-24T01:04:20.418Z,27.70
2023-08-24T01:06:53.612Z,28.49
2023-08-24T01:09:27.083Z,29.96
2023-08-24T01:12:07.295Z,28.48
2023-08-24T01:14:51.522Z,30.44
2023-08-24T01:17:30.752Z,31.09
2023-08-24T01:20:06.969Z,31.55
2023-08-24T01:22:49.646Z,33.19
2023-08-24T01:25:35.600Z,30.32
2023-08-24T01:28:12.662Z,27.70
2023-08-24T01:30:46.798Z,28.89
2023-08-24T01:33:20.094Z,29.11
2023-08-24T01:35:53.390Z,30.22
2023-08-24T01:38:26.954Z,27.95
2023-08-24T01:41:13.596Z,29.73
2023-08-24T01:43:54.740Z,29.93
2023-08-24T01:46:30.248Z,28.67
2023-08-24T01:49:07.909Z,28.68
2023-08-24T01:51:44.345Z,28.99
2023-08-24T01:54:17.463Z,27.75
2023-08-24T01:56:50.688Z,29.61
2023-08-24T01:59:25.329Z,28.52
2023-08-24T02:01:58.556Z,29.30
2023-08-24T02:04:31.793Z,29.92
2023-08-24T02:07:05.013Z,29.86
2023-08-24T02:09:38.156Z,31.76
2023-08-24T02:12:11.369Z,31.07
2023-08-24T02:14:45.949Z,31.64
2023-08-24T02:17:19.480Z,31.58
2023-08-24T02:19:52.639Z,35.39
2023-08-24T02:22:25.848Z,29.82
2023-08-24T02:24:59.095Z,28.30
2023-08-24T02:27:32.257Z,32.42
2023-08-24T02:30:08.288Z,28.71
2023-08-24T02:32:44.768Z,29.92
2023-08-24T02:35:18.551Z,28.01
2023-08-24T02:37:58.134Z,25.94
2023-08-24T02:40:31.422Z,28.61
2023-08-24T02:43:05.670Z,26.13
2023-08-24T02:45:40.302Z,27.50
2023-08-24T02:48:13.492Z,29.02
2023-08-24T02:50:48.707Z,27.16
2023-08-24T02:53:21.864Z,26.01
2023-08-24T02:55:55.065Z,26.15
2023-08-24T02:58:28.718Z,26.25
2023-08-24T03:01:07.578Z,29.28
2023-08-24T03:03:40.855Z,30.19
2023-08-24T03:06:13.991Z,28.41
2023-08-24T03:08:47.164Z,29.26
2023-08-24T03:11:20.432Z,30.81
2023-08-24T03:13:53.552Z,28.92
2023-08-24T03:16:28.903Z,29.66
2023-08-24T03:19:02.185Z,31.78
2023-08-24T03:21:35.422Z,31.39
2023-08-24T03:24:12.201Z,30.94
2023-08-24T03:26:46.476Z,29.53
2023-08-24T03:29:19.714Z,30.04
2023-08-24T03:31:54.665Z,29.30
2023-08-24T03:34:28.461Z,28.99
2023-08-24T03:37:01.756Z,26.88
2023-08-24T03:39:34.965Z,30.35
2023-08-24T03:42:08.741Z,29.66
2023-08-24T03:44:41.914Z,28.97
2023-08-24T03:47:16.454Z,27.13
2023-08-24T03:49:49.719Z,29.68
2023-08-24T03:52:23.255Z,31.52
2023-08-24T03:54:58.845Z,31.88
2023-08-24T03:57:32.936Z,31.54
2023-08-24T04:00:08.819Z,31.59
2023-08-24T04:02:48.407Z,33.52
2023-08-24T04:05:30.021Z,34.70
2023-08-24T04:08:03.520Z,33.75
2023-08-24T04:10:36.694Z,34.88
2023-08-24T04:13:12.379Z,36.76
2023-08-24T04:15:45.576Z,42.37
2023-08-24T04:18:20.171Z,41.16
2023-08-24T04:20:54.612Z,38.79
2023-08-24T04:23:28.321Z,37.05
2023-08-24T04:26:01.529Z,36.48
2023-08-24T04:28:34.746Z,38.28
2023-08-24T04:31:08.236Z,37.41
2023-08-24T04:33:42.883Z,37.51
2023-08-24T04:36:16.436Z,38.99
2023-08-24T04:38:50.108Z,38.56
2023-08-24T04:41:23.365Z,37.72
2023-08-24T04:43:58.935Z,39.91
2023-08-24T04:46:32.182Z,36.74
2023-08-24T04:49:06.846Z,38.10
2023-08-24T04:51:40.060Z,37.98
2023-08-24T04:54:13.209Z,39.76
2023-08-24T04:56:46.416Z,38.45
2023-08-24T04:59:19.630Z,40.49
2023-08-24T05:01:52.864Z,38.14
2023-08-24T05:04:27.509Z,42.02
2023-08-24T05:07:01.333Z,39.65
2023-08-24T05:09:34.741Z,37.94
2023-08-24T05:12:08.851Z,37.85
2023-08-24T05:14:42.842Z,37.32
2023-08-24T05:17:16.022Z,39.09
2023-08-24T05:19:53.279Z,39.71
2023-08-24T05:22:26.502Z,39.34
2023-08-24T05:24:59.711Z,38.86
2023-08-24T05:27:33.707Z,42.47
2023-08-24T05:30:08.048Z,43.96
2023-08-24T05:32:41.525Z,42.38
2023-08-24T05:35:17.252Z,41.75
2023-08-24T05:37:50.740Z,41.61
2023-08-24T05:40:24.126Z,41.12
2023-08-24T05:42:57.267Z,40.18
2023-08-24T05:45:30.405Z,38.93
2023-08-24T05:48:04.458Z,39.73
2023-08-24T05:50:44.250Z,38.78
2023-08-24T05:53:17.424Z,38.18
2023-08-24T05:55:50.520Z,37.10
2023-08-24T05:58:23.688Z,36.03
2023-08-24T06:01:00.352Z,38.37
2023-08-24T06:03:33.661Z,39.62
2023-08-24T06:06:11.129Z,40.38
2023-08-24T06:08:44.617Z,38.66
2023-08-24T06:11:17.711Z,40.25
2023-08-24T06:13:50.862Z,38.81
2023-08-24T06:16:26.310Z,39.97
2023-08-24T06:18:59.473Z,42.50
2023-08-24T06:21:34.031Z,39.28
2023-08-24T06:24:07.430Z,38.43
2023-08-24T06:26:40.612Z,40.91
2023-08-24T06:29:13.994Z,38.31
2023-08-24T06:31:47.166Z,39.80
2023-08-24T06:34:20.423Z,36.17
2023-08-24T06:36:55.811Z,36.00
2023-08-24T06:39:28.984Z,36.94
2023-08-24T06:42:03.590Z,36.47
2023-08-24T06:44:37.883Z,37.33
2023-08-24T06:47:11.082Z,35.47
2023-08-24T06:49:44.393Z,34.81
2023-08-24T06:52:18.977Z,36.70
2023-08-24T06:54:54.788Z,36.45
2023-08-24T06:57:28.105Z,36.75
2023-08-24T07:00:01.396Z,33.19
2023-08-24T07:02:34.878Z,34.05
2023-08-24T07:05:09.943Z,35.76
2023-08-24T07:07:45.529Z,33.59
2023-08-24T07:10:18.982Z,35.23
2023-08-24T07:12:52.173Z,37.76
2023-08-24T07:15:25.591Z,34.02
2023-08-24T07:17:58.806Z,32.31
2023-08-24T07:20:31.958Z,32.84
2023-08-24T07:23:06.641Z,31.56
2023-08-24T07:25:39.766Z,30.08
2023-08-24T07:28:12.974Z,29.99
2023-08-24T07:30:46.329Z,31.28
2023-08-24T07:33:21.328Z,29.16
2023-08-24T07:35:54.485Z,27.70
2023-08-24T07:38:29.029Z,25.60
2023-08-24T07:41:02.400Z,22.97
2023-08-24T07:43:35.817Z,23.49
2023-08-24T07:46:09.306Z,23.04
2023-08-24T07:48:42.600Z,24.19
2023-08-24T07:51:15.827Z,25.38
2023-08-24T07:53:51.878Z,23.23
2023-08-24T07:56:25.154Z,22.55
2023-08-24T07:58:58.378Z,22.35
2023-08-24T08:01:31.824Z,22.83
2023-08-24T08:04:05.409Z,22.82
2023-08-24T08:06:38.659Z,21.51
2023-08-24T08:09:14.028Z,21.59
2023-08-24T08:11:47.811Z,23.10
2023-08-24T08:14:21.229Z,21.46
2023-08-24T08:16:54.442Z,21.15
2023-08-24T08:19:29.169Z,20.77
2023-08-24T08:22:02.337Z,19.97
2023-08-24T08:24:36.964Z,21.37
2023-08-24T08:27:10.399Z,20.81
2023-08-24T08:29:43.908Z,19.42
2023-08-24T08:32:17.069Z,19.39
2023-08-24T08:34:50.243Z,18.11
2023-08-24T08:37:23.458Z,19.86
2023-08-24T08:39:58.152Z,17.55
2023-08-24T08:42:32.314Z,18.90
2023-08-24T08:45:11.406Z,20.11
2023-08-24T08:47:44.685Z,19.57
2023-08-24T08:50:18.281Z,19.98
2023-08-24T08:52:51.428Z,19.08
2023-08-24T08:55:25.994Z,20.99
2023-08-24T08:58:02.724Z,19.67
2023-08-24T09:00:37.420Z,18.47
2023-08-24T09:03:11.535Z,19.14
2023-08-24T09:05:47.810Z,19.55
2023-08-24T09:08:21.316Z,20.63
2023-08-24T09:10:56.222Z,18.99
2023-08-24T09:13:33.622Z,19.26
2023-08-24T09:16:08.834Z,19.75
2023-08-24T09:18:45.300Z,16.44
2023-08-24T09:21:18.577Z,20.17
2023-08-24T09:23:55.879Z,19.87
2023-08-24T09:26:35.770Z,20.48
2023-08-24T09:29:14.431Z,21.14
2023-08-24T09:31:47.652Z,19.65
2023-08-24T09:34:22.521Z,18.69
2023-08-24T09:36:55.727Z,19.51
2023-08-24T09:39:28.900Z,19.49
2023-08-24T09:42:05.813Z,18.84
2023-08-24T09:44:38.956Z,20.04
2023-08-24T09:47:13.098Z,19.27
2023-08-24T09:49:47.976Z,19.24
2023-08-24T09:52:22.490Z,18.58
2023-08-24T09:54:56.643Z,18.21
2023-08-24T09:57:31.281Z,18.94
2023-08-24T10:00:11.005Z,19.98
2023-08-24T10:02:52.717Z,21.22
2023-08-24T10:08:03.951Z,19.39
2023-08-24T10:10:40.630Z,20.37
2023-08-24T10:13:23.054Z,18.05
2023-08-24T10:15:58.635Z,19.20
2023-08-24T10:18:34.597Z,19.05
2023-08-24T10:21:09.375Z,20.52
2023-08-24T10:23:45.666Z,20.18
2023-08-24T10:26:19.865Z,20.64
2023-08-24T10:28:55.554Z,19.73
2023-08-24T10:31:30.337Z,17.91
2023-08-24T10:34:05.058Z,18.37
2023-08-24T10:36:41.412Z,20.75
2023-08-24T10:39:14.917Z,21.18
2023-08-24T10:41:49.689Z,19.87
2023-08-24T10:44:26.430Z,21.18
2023-08-24T10:47:15.830Z,19.10
2023-08-24T10:50:02.193Z,20.88
2023-08-24T10:52:40.340Z,21.01
2023-08-24T10:55:28.096Z,21.86
2023-08-24T10:58:02.212Z,23.33
2023-08-24T11:00:36.819Z,23.43
2023-08-24T11:03:11.153Z,23.37
2023-08-24T11:05:45.039Z,23.27
2023-08-24T11:08:18.255Z,25.36
2023-08-24T11:10:51.816Z,24.53
2023-08-24T11:13:26.101Z,25.42
2023-08-24T11:16:05.840Z,25.78
2023-08-24T11:18:42.278Z,27.76
2023-08-24T11:21:16.204Z,31.09
2023-08-24T11:23:50.781Z,33.69
2023-08-24T11:26:24.034Z,33.04
2023-08-24T11:28:58.906Z,32.81
2023-08-24T11:31:34.819Z,36.02
2023-08-24T11:34:09.751Z,36.77
2023-08-24T11:36:48.379Z,38.67
2023-08-24T11:39:23.872Z,40.07
2023-08-24T11:42:01.687Z,39.94
2023-08-24T11:44:47.871Z,41.47
2023-08-24T11:47:24.844Z,43.55
2023-08-24T11:49:59.919Z,41.13
2023-08-24T11:52:37.180Z,42.10
2023-08-24T11:55:10.954Z,41.33
2023-08-24T11:57:44.750Z,42.81
2023-08-24T12:00:19.088Z,40.86
2023-08-24T12:02:54.142Z,42.96
2023-08-24T12:05:29.424Z,39.85
2023-08-24T12:08:02.698Z,45.76
2023-08-24T12:10:36.851Z,39.61
2023-08-24T12:13:12.887Z,39.99
2023-08-24T12:15:48.407Z,39.42
2023-08-24T12:18:23.046Z,40.26
2023-08-24T12:20:56.304Z,38.46
2023-08-24T12:23:31.721Z,35.17
2023-08-24T12:26:06.591Z,34.10
2023-08-24T12:28:39.758Z,32.57
2023-08-24T12:31:16.745Z,32.55
2023-08-24T12:34:02.475Z,33.72
2023-08-24T12:36:38.039Z,29.99
2023-08-24T12:39:15.052Z,30.93
2023-08-24T12:41:48.213Z,28.13
2023-08-24T12:44:21.326Z,32.02
2023-08-24T12:46:54.536Z,30.45
2023-08-24T12:49:29.122Z,27.43
2023-08-24T12:52:02.293Z,29.96
2023-08-24T12:54:35.518Z,25.22
2023-08-24T12:57:09.397Z,26.10
2023-08-24T12:59:42.667Z,26.53
2023-08-24T13:02:25.211Z,28.96
2023-08-24T13:05:05.456Z,33.65
2023-08-24T13:07:40.133Z,33.88
2023-08-24T13:10:14.009Z,27.26
2023-08-24T13:12:47.088Z,31.70
2023-08-24T13:15:21.221Z,29.94
2023-08-24T13:17:54.643Z,30.46
2023-08-24T13:20:29.319Z,29.48
2023-08-24T13:23:02.442Z,30.03
2023-08-24T13:25:35.530Z,31.83
2023-08-24T13:28:08.733Z,31.81
2023-08-24T13:30:43.934Z,30.61
2023-08-24T13:33:20.743Z,28.41
2023-08-24T13:35:55.215Z,29.75
2023-08-24T13:38:28.315Z,27.64
2023-08-24T13:41:04.707Z,28.09
2023-08-24T13:43:37.773Z,23.67
2023-08-24T13:46:10.887Z,23.64
2023-08-24T13:48:44.022Z,24.89
2023-08-24T13:51:19.172Z,24.45
2023-08-24T13:53:52.322Z,24.65
2023-08-24T13:56:25.407Z,26.61
2023-08-24T13:58:58.551Z,26.38
2023-08-24T14:01:31.704Z,26.39
2023-08-24T14:04:05.502Z,26.38
2023-08-24T14:06:40.149Z,24.75
2023-08-24T14:09:13.269Z,25.22
2023-08-24T14:11:46.439Z,26.55
2023-08-24T14:14:21.889Z,26.01
2023-08-24T14:16:58.335Z,29.28
2023-08-24T14:19:31.506Z,26.27
2023-08-24T14:22:06.052Z,25.73
2023-08-24T14:24:39.118Z,23.50
2023-08-24T14:27:12.242Z,25.04
2023-08-24T14:29:45.307Z,22.54
2023-08-24T14:32:18.940Z,22.61
2023-08-24T14:34:52.061Z,19.57
2023-08-24T14:37:26.701Z,20.40
2023-08-24T14:39:59.863Z,19.61
2023-08-24T14:42:32.952Z,18.50
2023-08-24T14:45:07.042Z,17.89
2023-08-24T14:47:40.686Z,16.17
2023-08-24T14:50:14.121Z,15.57
2023-08-24T14:52:48.764Z,16.32
2023-08-24T14:55:21.857Z,14.39
2023-08-24T14:57:56.328Z,13.36
2023-08-24T15:00:29.558Z,14.19
2023-08-24T15:03:05.871Z,14.04
2023-08-24T15:05:45.143Z,13.87
2023-08-24T15:08:19.712Z,13.54
2023-08-24T15:10:52.873Z,14.13
2023-08-24T15:13:26.101Z,13.44
2023-08-24T15:16:00.693Z,12.91
2023-08-24T15:18:33.850Z,12.09
2023-08-24T15:21:06.926Z,11.47
2023-08-24T15:23:41.390Z,11.11
2023-08-24T15:26:14.550Z,11.23
2023-08-24T15:29:10.337Z,11.42
2023-08-24T15:31:43.857Z,10.44
2023-08-24T15:34:17.037Z,9.35
2023-08-24T15:36:50.170Z,9.15
2023-08-24T15:39:25.127Z,10.05
2023-08-24T15:41:58.296Z,10.67
2023-08-24T15:44:31.468Z,9.42
2023-08-24T15:47:04.813Z,9.35
2023-08-24T15:49:38.719Z,9.23
2023-08-24T15:52:11.850Z,10.70
2023-08-24T15:54:46.412Z,9.95
2023-08-24T15:57:19.720Z,9.04
2023-08-24T15:59:52.943Z,8.96
2023-08-24T16:02:26.233Z,10.16
2023-08-24T16:04:59.475Z,11.51
2023-08-24T16:07:32.698Z,8.89
2023-08-24T16:10:08.258Z,9.42
2023-08-24T16:12:41.732Z,9.85
2023-08-24T16:15:18.116Z,10.18
2023-08-24T16:17:51.670Z,7.94
2023-08-24T16:20:25.103Z,9.67
2023-08-24T16:22:58.340Z,9.33
2023-08-24T16:25:33.392Z,9.35
2023-08-24T16:28:07.430Z,10.15
2023-08-24T16:30:42.995Z,8.69
2023-08-24T16:33:16.572Z,9.01
2023-08-24T16:35:50.143Z,8.96
2023-08-24T16:38:23.335Z,10.86
2023-08-24T16:40:58.305Z,11.69
2023-08-24T16:43:32.727Z,9.81
2023-08-24T16:46:05.907Z,9.85
2023-08-24T16:48:39.067Z,12.15
2023-08-24T16:51:12.232Z,10.06
2023-08-24T16:53:45.386Z,9.72
2023-08-24T16:56:19.937Z,9.26
2023-08-24T16:58:53.115Z,10.92
2023-08-24T17:01:26.442Z,10.71
2023-08-24T17:03:59.692Z,13.64
2023-08-24T17:06:35.394Z,12.37
2023-08-24T17:09:10.023Z,11.34
2023-08-24T17:11:44.596Z,12.55
2023-08-24T17:14:17.795Z,10.90
2023-08-24T17:16:51.396Z,18.90
2023-08-24T17:19:24.497Z,10.38
2023-08-24T17:21:57.555Z,9.07
2023-08-24T17:24:30.639Z,9.96
2023-08-24T17:27:05.228Z,25.84
2023-08-24T17:29:38.330Z,28.28
2023-08-24T17:32:11.413Z,16.20
2023-08-24T17:34:44.512Z,14.37
2023-08-24T17:37:17.632Z,15.65
2023-08-24T17:39:50.772Z,12.52
2023-08-24T17:42:25.221Z,13.48
2023-08-24T17:44:58.350Z,13.91
2023-08-24T17:47:31.478Z,12.95
2023-08-24T17:50:06.078Z,12.97
2023-08-24T17:52:39.165Z,12.14
2023-08-24T17:55:12.754Z,15.49
2023-08-24T17:57:47.282Z,13.98
2023-08-24T18:00:20.930Z,13.85
2023-08-24T18:02:54.126Z,13.53
2023-08-24T18:05:27.177Z,13.10
2023-08-24T18:08:00.538Z,12.57
2023-08-24T18:10:33.826Z,13.48
2023-08-24T18:13:08.437Z,10.08
2023-08-24T18:15:41.696Z,11.17
2023-08-24T18:18:14.861Z,12.88
2023-08-24T18:20:48.041Z,12.56
2023-08-24T18:23:21.136Z,15.37
2023-08-24T18:25:54.357Z,15.93
2023-08-24T18:28:28.848Z,16.53
2023-08-24T18:31:03.035Z,14.57
2023-08-24T18:33:36.306Z,16.02
2023-08-24T18:36:09.508Z,13.41
2023-08-24T18:38:42.709Z,13.01
2023-08-24T18:41:15.966Z,13.57
2023-08-24T18:43:50.462Z,14.59
2023-08-24T18:46:23.734Z,17.76
2023-08-24T18:48:56.910Z,17.22
2023-08-24T18:51:30.393Z,18.46
2023-08-24T18:54:03.624Z,17.13
2023-08-24T18:56:36.757Z,17.50
2023-08-24T18:59:11.334Z,16.93
2023-08-24T19:01:44.571Z,14.96
2023-08-24T19:04:17.789Z,19.31
2023-08-24T19:06:53.433Z,18.27
2023-08-24T19:09:26.589Z,18.97
2023-08-24T19:11:59.751Z,18.79
2023-08-24T19:14:36.614Z,18.80
2023-08-24T19:17:09.946Z,22.60
2023-08-24T19:19:43.065Z,36.99
2023-08-24T19:22:16.237Z,24.19
2023-08-24T19:24:49.422Z,24.21
2023-08-24T19:27:24.328Z,22.93
2023-08-24T19:29:59.369Z,22.78
2023-08-24T19:32:32.583Z,19.42
2023-08-24T19:35:06.413Z,20.49
2023-08-24T19:37:39.574Z,21.02
2023-08-24T19:40:13.513Z,20.55
2023-08-24T19:42:47.516Z,23.41
2023-08-24T19:45:22.075Z,22.13
2023-08-24T19:47:55.502Z,19.71
2023-08-24T19:50:29.693Z,20.63
2023-08-24T19:53:03.325Z,22.17
2023-08-24T19:55:36.433Z,21.34
2023-08-24T19:58:09.702Z,21.64
2023-08-24T20:00:44.251Z,21.16
2023-08-24T20:03:17.595Z,20.32
2023-08-24T20:05:55.603Z,20.84
2023-08-24T20:08:29.072Z,20.02
2023-08-24T20:11:02.737Z,19.99
2023-08-24T20:13:35.853Z,20.15
2023-08-24T20:16:10.391Z,21.19
2023-08-24T20:18:44.979Z,16.40
2023-08-24T20:21:18.233Z,17.97
2023-08-24T20:23:51.498Z,16.40
2023-08-24T20:26:25.039Z,19.77
2023-08-24T20:28:58.200Z,21.06
2023-08-24T20:31:35.299Z,23.01
2023-08-24T20:34:08.514Z,22.22
2023-08-24T20:36:41.716Z,23.30
2023-08-24T20:39:14.918Z,21.45
2023-08-24T20:41:48.396Z,23.89
2023-08-24T20:44:22.079Z,23.24
2023-08-24T20:46:56.624Z,23.99
2023-08-24T20:49:30.595Z,22.29
2023-08-24T20:52:04.579Z,22.83
2023-08-24T20:54:37.724Z,22.04
2023-08-24T20:57:10.929Z,22.28
2023-08-24T20:59:47.229Z,22.97
2023-08-24T21:02:21.737Z,24.28
2023-08-24T21:04:56.000Z,24.32
2023-08-24T21:07:30.095Z,25.34
2023-08-24T21:10:03.507Z,25.91
2023-08-24T21:12:36.634Z,25.86
2023-08-24T21:15:10.575Z,25.60
2023-08-24T21:17:45.189Z,23.93
2023-08-24T21:20:20.568Z,26.18
2023-08-24T21:22:53.799Z,24.12
2023-08-24T21:25:26.975Z,27.37
2023-08-24T21:28:00.104Z,30.91
2023-08-24T21:30:35.511Z,29.47
2023-08-24T21:33:10.098Z,25.92
2023-08-24T21:35:43.364Z,27.28
2023-08-24T21:38:16.462Z,27.71
2023-08-24T21:40:50.625Z,30.79
2023-08-24T21:43:24.035Z,26.38
2023-08-24T21:45:57.872Z,28.62
2023-08-24T21:48:32.458Z,27.92
2023-08-24T21:51:05.622Z,33.20
2023-08-24T21:53:38.944Z,32.34
2023-08-24T21:56:12.153Z,31.09
2023-08-24T21:58:45.318Z,29.91
2023-08-24T22:01:19.075Z,29.40
2023-08-24T22:03:53.663Z,28.02
2023-08-24T22:06:26.842Z,30.57
2023-08-24T22:08:59.949Z,28.44
2023-08-24T22:11:33.147Z,28.77
2023-08-24T22:14:06.336Z,32.10
2023-08-24T22:16:39.567Z,32.30
2023-08-24T22:19:24.881Z,30.52
2023-08-24T22:22:00.099Z,29.29
2023-08-24T22:24:33.268Z,29.47
2023-08-24T22:27:07.040Z,30.50
2023-08-24T22:29:40.192Z,31.22
2023-08-24T22:32:13.423Z,31.12
2023-08-24T22:34:47.922Z,31.43
2023-08-24T22:37:21.279Z,30.45
2023-08-24T22:39:55.351Z,30.52
2023-08-24T22:42:28.554Z,30.09
2023-08-24T22:45:01.659Z,30.59
2023-08-24T22:47:35.530Z,28.66
2023-08-24T22:50:12.129Z,29.39
2023-08-24T22:52:45.526Z,26.72
2023-08-24T22:55:18.721Z,26.96
2023-08-24T22:57:52.048Z,31.00
2023-08-24T23:00:25.504Z,27.65
2023-08-24T23:02:58.688Z,28.11
2023-08-24T23:05:33.521Z,27.96
2023-08-24T23:08:08.157Z,26.45
2023-08-24T23:10:41.381Z,26.30
2023-08-24T23:13:14.529Z,27.72
2023-08-24T23:15:47.752Z,29.30
2023-08-24T23:18:20.962Z,27.37
2023-08-24T23:20:55.506Z,24.90
2023-08-24T23:23:29.253Z,26.61
2023-08-24T23:26:02.403Z,26.29
2023-08-24T23:28:35.568Z,25.52
2023-08-24T23:31:08.798Z,24.87
2023-08-24T23:33:42.049Z,26.40
2023-08-24T23:36:16.740Z,22.45
2023-08-24T23:38:49.881Z,26.05
2023-08-24T23:41:22.986Z,25.89
2023-08-24T23:43:56.153Z,24.46
2023-08-24T23:46:29.637Z,28.76
2023-08-24T23:49:02.823Z,32.65
2023-08-24T23:51:37.319Z,31.24
2023-08-24T23:54:10.650Z,27.10
2023-08-24T23:56:43.848Z,23.26
2023-08-24T23:59:17.046Z,25.92
